Date,TemperatureHighF,TemperatureAvgF,TemperatureLowF,DewpointHighF,DewpointAvgF,DewpointLowF,HumidityHigh,HumidityAvg,HumidityLow,PressureMaxIn,PressureMinIn,WindSpeedMaxMPH,WindSpeedAvgMPH,GustSpeedMaxMPH,PrecipitationSumIn
2013-10-1,77.1,63.5,54.3,65.0,59.0,53.7,100,87,61,30.09,29.99,2,0,6,0.00
2013-10-2,80.6,66.7,58.7,68.9,62.6,57.5,98,88,65,30.09,30.02,2,0,6,0.01
2013-10-3,81.8,66.4,59.1,71.5,64.0,58.5,99,93,68,30.09,30.00,1,0,5,0.13
2013-10-4,71.5,68.7,66.9,69.7,67.8,66.3,99,97,92,30.06,30.03,1,0,3,0.41
2013-10-5,78.5,67.7,63.2,71.8,66.5,62.8,100,96,75,30.06,30.00,1,0,3,0.04
2013-10-7,50.5,49.7,48.3,47.6,47.1,46.1,92,91,89,30.15,30.14,0,0,1,0.79
2013-10-8,66.3,53.0,41.9,54.2,45.1,41.6,100,79,43,30.33,30.15,3,0,6,0.00
2013-10-9,47.0,46.4,45.7,45.9,45.3,44.6,97,96,95,30.27,30.26,0,0,0,0.00
2013-10-10,67.8,54.8,43.3,49.5,44.6,39.0,98,74,37,30.26,30.15,1,0,3,0.01
2013-10-11,69.8,63.6,50.8,60.0,50.8,45.7,100,66,44,30.17,30.13,2,1,4,0.00
2013-10-12,73.1,67.7,62.2,64.5,62.9,60.2,95,85,71,30.15,30.08,1,0,3,0.00
2013-10-13,70.3,63.5,58.1,62.6,60.3,55.2,95,90,77,30.30,30.14,1,0,3,0.02
2013-10-14,65.2,56.8,46.1,55.5,50.6,43.3,97,81,58,30.37,30.26,4,1,8,0.00
2013-10-15,64.7,54.7,41.8,60.7,52.9,41.0,98,94,85,30.27,29.97,1,0,3,0.01
2013-10-16,67.8,59.9,46.6,64.4,58.7,45.8,99,96,87,29.98,29.81,3,0,6,0.61
2013-10-17,59.1,48.1,41.2,52.7,46.2,40.8,100,94,68,29.94,29.79,2,0,5,0.31
2013-10-18,62.0,49.4,40.9,48.7,44.6,40.1,99,85,52,30.02,29.91,3,1,7,0.00
2013-10-20,58.1,51.4,44.9,44.4,42.1,40.5,88,71,54,30.02,29.99,3,1,9,0.00
2013-10-21,63.4,51.9,41.9,49.0,42.7,38.8,95,73,47,30.02,29.86,3,0,7,0.11
2013-10-22,49.6,42.1,34.9,48.5,35.7,29.5,96,79,51,29.99,29.87,3,1,9,0.12
2013-10-23,45.1,38.3,31.8,39.9,33.8,30.0,97,85,64,29.97,29.81,3,1,10,0.10
2013-10-24,44.9,35.8,31.0,35.0,31.8,29.3,96,86,63,30.20,29.96,3,1,11,0.00
2013-10-25,46.6,38.5,32.4,36.3,32.8,29.0,97,81,53,30.37,30.20,3,1,8,0.04
2013-10-26,45.6,37.5,32.4,33.0,29.3,27.6,90,73,56,30.26,29.91,3,1,8,0.00
2013-10-27,36.2,35.0,34.1,34.1,33.1,31.9,95,93,89,30.13,30.10,0,0,6,0.01
2013-10-28,56.8,41.9,30.4,42.7,36.5,29.5,99,84,53,30.38,30.12,2,0,5,0.00
2013-10-29,55.6,41.8,30.2,44.9,36.1,29.7,99,83,52,30.45,30.29,2,0,5,0.01
2013-10-30,64.1,50.2,36.3,51.5,43.6,35.3,99,80,55,30.29,30.12,1,0,4,0.00